Westhampton Beach, New York
Current Conditions -  °F | °C
As of 3:53 AM on Saturday 25 Oct 2014 (Local Time) from KFOK Reporting Station
Clear Clear  
Wind Chill:   Ceiling: Unl
Heat Index:   Visibility: 10mi
Dew Point:   Wind: 5mph
Humidity: 83%   Direction: 300°WNW
Pressure: 29.83"   Gusts: NA
Location:  40.8°N, 72.61°W
Report Text: KFOK 250753Z AUTO 30004KT 10SM CLR 08/06 A2983 RMK AO2 SLP101 T00830056 TSNO
Loading
Personal Weather Stations






























Interactive Weather Map
Tropical Storm Tracking
New forecast layout! Learn more

10-Day Weather Forecast

Advertisements
Track Severe Weather on mobile